createdAt,value
2023-02-18T00:00:30.949Z,9.7
2023-02-18T00:01:37.790Z,9.7
2023-02-18T00:02:44.766Z,9.7
2023-02-18T00:03:51.528Z,9.6
2023-02-18T00:04:58.379Z,9.6
2023-02-18T00:06:07.257Z,9.7
2023-02-18T00:07:17.880Z,9.7
2023-02-18T00:08:24.789Z,9.7
2023-02-18T00:09:31.579Z,9.6
2023-02-18T00:10:38.601Z,9.6
2023-02-18T00:11:46.286Z,9.7
2023-02-18T00:12:53.096Z,9.7
2023-02-18T00:13:59.960Z,9.7
2023-02-18T00:15:07.051Z,9.7
2023-02-18T00:16:14.047Z,9.7
2023-02-18T00:17:20.780Z,9.8
2023-02-18T00:18:27.578Z,9.7
2023-02-18T00:19:34.494Z,9.7
2023-02-18T00:20:41.525Z,9.6
2023-02-18T00:21:48.411Z,9.5
2023-02-18T00:22:55.279Z,9.8
2023-02-18T00:24:02.448Z,9.8
2023-02-18T00:25:09.386Z,9.7
2023-02-18T00:26:18.107Z,9.8
2023-02-18T00:27:25.678Z,9.8
2023-02-18T00:28:32.575Z,9.7
2023-02-18T00:29:39.438Z,9.8
2023-02-18T00:30:46.312Z,9.8
2023-02-18T00:31:53.243Z,9.8
2023-02-18T00:33:00.814Z,9.8
2023-02-18T00:34:07.712Z,9.8
2023-02-18T00:35:14.534Z,9.8
2023-02-18T00:36:21.396Z,9.8
2023-02-18T00:37:28.330Z,9.9
2023-02-18T00:38:35.267Z,9.8
2023-02-18T00:39:43.086Z,10
2023-02-18T00:40:49.966Z,9.9
2023-02-18T00:41:57.606Z,9.8
2023-02-18T00:43:04.624Z,9.7
2023-02-18T00:44:11.550Z,9.8
2023-02-18T00:45:18.501Z,9.9
2023-02-18T00:46:25.898Z,10
2023-02-18T00:47:32.703Z,10
2023-02-18T00:48:39.807Z,9.9
2023-02-18T00:49:47.489Z,10
2023-02-18T00:50:55.126Z,9.9
2023-02-18T00:52:02.087Z,9.9
2023-02-18T00:53:09.065Z,9.9
2023-02-18T00:54:15.900Z,10
2023-02-18T00:55:23.262Z,10
2023-02-18T00:56:31.678Z,9.7
2023-02-18T00:57:38.478Z,9.7
2023-02-18T00:58:45.469Z,9.8
2023-02-18T00:59:53.244Z,9.9
2023-02-18T01:01:00.117Z,10.1
2023-02-18T01:02:06.966Z,10.2
2023-02-18T01:03:14.695Z,10.3
2023-02-18T01:04:21.620Z,10.3
2023-02-18T01:05:28.444Z,10.2
2023-02-18T01:06:35.366Z,10.2
2023-02-18T01:07:44.136Z,10.2
2023-02-18T01:08:50.933Z,10.1
2023-02-18T01:09:57.806Z,10.2
2023-02-18T01:11:04.687Z,10.2
2023-02-18T01:12:12.533Z,10.1
2023-02-18T01:13:19.426Z,10.2
2023-02-18T01:14:26.384Z,10.1
2023-02-18T01:15:33.968Z,10.1
2023-02-18T01:16:40.864Z,10.1
2023-02-18T01:17:47.634Z,10.1
2023-02-18T01:18:54.520Z,10.1
2023-02-18T01:20:01.331Z,10.1
2023-02-18T01:21:09.257Z,10.2
2023-02-18T01:22:16.109Z,10
2023-02-18T01:23:23.027Z,10.1
2023-02-18T01:24:29.879Z,9.9
2023-02-18T01:25:37.735Z,9.9
2023-02-18T01:26:44.728Z,9.8
2023-02-18T01:27:53.111Z,9.9
2023-02-18T01:29:00.033Z,9.6
2023-02-18T01:30:07.865Z,9.7
2023-02-18T01:31:15.056Z,9.6
2023-02-18T01:32:22.608Z,9.6
2023-02-18T01:33:29.345Z,9.5
2023-02-18T01:34:37.000Z,9.5
2023-02-18T01:35:43.907Z,9.5
2023-02-18T01:36:50.937Z,9.3
2023-02-18T01:37:58.634Z,9.4
2023-02-18T01:39:06.294Z,9.4
2023-02-18T01:40:13.098Z,9.5
2023-02-18T01:41:20.119Z,9.5
2023-02-18T01:42:26.989Z,9.5
2023-02-18T01:43:36.712Z,9.5
2023-02-18T01:44:43.663Z,9.6
2023-02-18T01:45:50.538Z,9.4
2023-02-18T01:47:02.437Z,9.3
2023-02-18T01:48:09.326Z,9.4
2023-02-18T01:49:19.827Z,9.5
2023-02-18T01:50:31.740Z,9.2
2023-02-18T01:51:38.610Z,9.3
2023-02-18T01:52:47.554Z,9.4
2023-02-18T01:53:54.381Z,9.1
2023-02-18T01:55:07.190Z,9.3
2023-02-18T01:56:14.053Z,9.3
2023-02-18T01:57:25.557Z,9.4
2023-02-18T01:58:35.992Z,9.4
2023-02-18T01:59:42.897Z,9.4
2023-02-18T02:00:51.527Z,9.5
2023-02-18T02:01:59.223Z,9.6
2023-02-18T02:03:05.968Z,9.6
2023-02-18T02:04:12.803Z,9.5
2023-02-18T02:05:19.984Z,9.6
2023-02-18T02:06:26.880Z,9.5
2023-02-18T02:07:34.682Z,9.5
2023-02-18T02:08:41.643Z,9.3
2023-02-18T02:09:48.549Z,9.4
2023-02-18T02:10:55.461Z,9.3
2023-02-18T02:12:07.350Z,9.3
2023-02-18T02:13:20.360Z,9.2
2023-02-18T02:14:37.276Z,9
2023-02-18T02:15:54.324Z,9.1
2023-02-18T02:17:06.121Z,9.1
2023-02-18T02:18:20.876Z,9.1
2023-02-18T02:19:38.782Z,9.1
2023-02-18T02:20:57.360Z,8.9
2023-02-18T02:22:09.668Z,9
2023-02-18T02:23:27.464Z,9
2023-02-18T02:24:44.413Z,9.1
2023-02-18T02:25:56.316Z,9.1
2023-02-18T02:27:10.865Z,9.1
2023-02-18T02:28:17.740Z,9.2
2023-02-18T02:29:34.680Z,9.1
2023-02-18T02:30:42.447Z,9.1
2023-02-18T02:32:00.209Z,9.1
2023-02-18T02:33:15.206Z,9.1
2023-02-18T02:34:32.148Z,9
2023-02-18T02:35:49.214Z,8.9
2023-02-18T02:36:56.827Z,8.8
2023-02-18T02:38:08.907Z,8.7
2023-02-18T02:39:15.788Z,8.8
2023-02-18T02:40:22.684Z,8.8
2023-02-18T02:41:39.612Z,8.9
2023-02-18T02:42:46.421Z,8.8
2023-02-18T02:43:56.131Z,8.8
2023-02-18T02:45:08.017Z,8.9
2023-02-18T02:46:25.077Z,9
2023-02-18T02:47:34.574Z,8.9
2023-02-18T02:48:51.529Z,9
2023-02-18T02:50:08.611Z,8.9
2023-02-18T02:51:20.573Z,8.9
2023-02-18T02:52:32.467Z,9
2023-02-18T02:53:45.204Z,9
2023-02-18T02:54:52.108Z,9.1
2023-02-18T02:55:59.680Z,9.1
2023-02-18T02:57:06.584Z,9.2
2023-02-18T02:58:21.461Z,9.1
2023-02-18T02:59:29.281Z,9
2023-02-18T03:00:36.140Z,9.1
2023-02-18T03:01:50.836Z,9.2
2023-02-18T03:03:02.744Z,9.3
2023-02-18T03:04:15.393Z,9.3
2023-02-18T03:05:22.239Z,9.3
2023-02-18T03:06:31.742Z,9.2
2023-02-18T03:07:43.662Z,9
2023-02-18T03:08:58.623Z,9.1
2023-02-18T03:10:13.533Z,9
2023-02-18T03:11:20.449Z,9.1
2023-02-18T03:12:27.330Z,9.1
2023-02-18T03:13:42.275Z,9.2
2023-02-18T03:14:57.943Z,9.2
2023-02-18T03:16:14.910Z,9.4
2023-02-18T03:17:26.739Z,9.3
2023-02-18T03:18:33.643Z,9.3
2023-02-18T03:19:40.454Z,9.4
2023-02-18T03:20:52.320Z,9.4
2023-02-18T03:22:06.910Z,9.3
2023-02-18T03:23:17.082Z,9.4
2023-02-18T03:24:24.183Z,9.3
2023-02-18T03:25:33.638Z,9.3
2023-02-18T03:26:40.540Z,9.2
2023-02-18T03:27:48.261Z,9.3
2023-02-18T03:29:01.008Z,9.2
2023-02-18T03:30:09.501Z,9.3
2023-02-18T03:31:16.565Z,9.2
2023-02-18T03:32:23.259Z,9.2
2023-02-18T03:33:31.248Z,9.2
2023-02-18T03:34:44.134Z,9.2
2023-02-18T03:35:50.965Z,9.4
2023-02-18T03:36:57.907Z,9.4
2023-02-18T03:38:04.796Z,9.3
2023-02-18T03:39:16.781Z,9.4
2023-02-18T03:40:24.434Z,9.4
2023-02-18T03:41:35.247Z,9.4
2023-02-18T03:42:42.102Z,9.4
2023-02-18T03:43:49.848Z,9.4
2023-02-18T03:44:56.726Z,9.3
2023-02-18T03:46:03.649Z,9.3
2023-02-18T03:47:10.543Z,9.2
2023-02-18T03:48:18.409Z,9.2
2023-02-18T03:49:25.191Z,9.3
2023-02-18T03:50:32.817Z,9.2
2023-02-18T03:51:39.651Z,9.3
2023-02-18T03:52:46.537Z,9.4
2023-02-18T03:53:53.606Z,9.4
2023-02-18T03:55:02.689Z,9.3
2023-02-18T03:56:09.944Z,9.2
2023-02-18T03:57:16.607Z,9.1
2023-02-18T03:58:23.492Z,9.1
2023-02-18T03:59:30.245Z,9.2
2023-02-18T04:00:37.250Z,9.2
2023-02-18T04:01:44.391Z,9.2
2023-02-18T04:02:51.247Z,9.3
2023-02-18T04:03:58.249Z,9.2
2023-02-18T04:05:05.991Z,9.1
2023-02-18T04:06:13.689Z,9.2
2023-02-18T04:07:21.709Z,9.1
2023-02-18T04:08:28.708Z,9.1
2023-02-18T04:09:35.591Z,9
2023-02-18T04:10:42.633Z,8.8
2023-02-18T04:11:49.464Z,8.9
2023-02-18T04:12:56.328Z,8.9
2023-02-18T04:14:03.252Z,8.9
2023-02-18T04:15:10.151Z,9
2023-02-18T04:16:17.091Z,9
2023-02-18T04:17:25.491Z,8.9
2023-02-18T04:18:32.311Z,8.9
2023-02-18T04:19:39.236Z,8.8
2023-02-18T04:20:46.212Z,8.9
2023-02-18T04:21:54.694Z,8.8
2023-02-18T04:23:03.235Z,8.9
2023-02-18T04:24:10.403Z,9
2023-02-18T04:25:17.298Z,9
2023-02-18T04:26:25.115Z,8.9
2023-02-18T04:27:31.981Z,8.8
2023-02-18T04:28:39.003Z,8.7
2023-02-18T04:29:46.641Z,8.8
2023-02-18T04:30:53.883Z,8.8
2023-02-18T04:32:00.852Z,8.7
2023-02-18T04:33:08.847Z,8.7
2023-02-18T04:34:16.782Z,8.7
2023-02-18T04:35:26.548Z,8.8
2023-02-18T04:36:33.496Z,8.6
2023-02-18T04:37:40.301Z,8.6
2023-02-18T04:38:47.208Z,8.7
2023-02-18T04:39:54.120Z,8.6
2023-02-18T04:41:03.033Z,8.7
2023-02-18T04:42:09.832Z,8.7
2023-02-18T04:43:16.904Z,8.7
2023-02-18T04:44:23.736Z,8.6
2023-02-18T04:45:30.778Z,8.7
2023-02-18T04:46:37.895Z,8.5
2023-02-18T04:47:45.603Z,8.5
2023-02-18T04:48:52.451Z,8.6
2023-02-18T04:50:00.111Z,8.5
2023-02-18T04:51:07.920Z,8.4
2023-02-18T04:52:15.655Z,8.3
2023-02-18T04:53:23.663Z,8.4
2023-02-18T04:54:30.517Z,8.3
2023-02-18T04:55:37.381Z,8.3
2023-02-18T04:56:44.413Z,8.3
2023-02-18T04:57:51.236Z,8.2
2023-02-18T04:58:59.039Z,8.1
2023-02-18T05:00:06.731Z,8.1
2023-02-18T05:01:13.906Z,8.2
2023-02-18T05:02:21.584Z,8.3
2023-02-18T05:03:29.302Z,8.3
2023-02-18T05:04:37.002Z,8.4
2023-02-18T05:05:43.879Z,8.4
2023-02-18T05:06:51.572Z,8.4
2023-02-18T05:07:58.438Z,8.3
2023-02-18T05:09:06.066Z,8.4
2023-02-18T05:10:13.086Z,8.4
2023-02-18T05:11:20.009Z,8.4
2023-02-18T05:12:26.905Z,8.4
2023-02-18T05:13:33.697Z,8.4
2023-02-18T05:14:40.555Z,8.4
2023-02-18T05:15:48.354Z,8.4
2023-02-18T05:16:55.162Z,8.4
2023-02-18T05:18:02.062Z,8.4
2023-02-18T05:19:09.794Z,8.4
2023-02-18T05:20:19.825Z,8.5
2023-02-18T05:21:27.479Z,8.4
2023-02-18T05:22:34.355Z,8.3
2023-02-18T05:23:41.250Z,8.3
2023-02-18T05:24:49.306Z,8.4
2023-02-18T05:25:56.219Z,8.4
2023-02-18T05:27:03.068Z,8.5
2023-02-18T05:28:09.928Z,8.4
2023-02-18T05:29:17.557Z,8.4
2023-02-18T05:30:24.491Z,8.4
2023-02-18T05:31:31.475Z,8.4
2023-02-18T05:32:39.982Z,8.4
2023-02-18T05:33:46.859Z,8.4
2023-02-18T05:34:55.284Z,8.4
2023-02-18T05:36:02.342Z,8.5
2023-02-18T05:37:09.333Z,8.5
2023-02-18T05:38:17.787Z,8.5
2023-02-18T05:39:24.606Z,8.5
2023-02-18T05:40:31.674Z,8.5
2023-02-18T05:41:38.666Z,8.5
2023-02-18T05:42:45.442Z,8.5
2023-02-18T05:43:52.344Z,8.5
2023-02-18T05:45:05.877Z,8.5
2023-02-18T05:46:12.922Z,8.6
2023-02-18T05:47:20.824Z,8.5
2023-02-18T05:48:27.621Z,8.5
2023-02-18T05:49:34.471Z,8.5
2023-02-18T05:50:41.360Z,8.5
2023-02-18T05:51:48.196Z,8.6
2023-02-18T05:52:55.092Z,8.7
2023-02-18T05:54:01.901Z,8.7
2023-02-18T05:55:09.779Z,8.7
2023-02-18T05:56:16.705Z,8.6
2023-02-18T05:57:23.449Z,8.7
2023-02-18T05:58:30.344Z,8.7
2023-02-18T05:59:37.148Z,8.6
2023-02-18T06:00:44.152Z,8.7
2023-02-18T06:01:51.808Z,8.7
2023-02-18T06:02:58.817Z,8.7
2023-02-18T06:04:05.689Z,8.8
2023-02-18T06:05:12.584Z,8.7
2023-02-18T06:06:20.510Z,8.7
2023-02-18T06:07:27.765Z,8.8
2023-02-18T06:08:34.758Z,8.8
2023-02-18T06:09:42.655Z,8.7
2023-02-18T06:10:49.658Z,8.6
2023-02-18T06:11:56.565Z,8.7
2023-02-18T06:13:03.601Z,8.6
2023-02-18T06:14:11.272Z,8.7
2023-02-18T06:15:18.922Z,8.7
2023-02-18T06:16:25.962Z,8.7
2023-02-18T06:17:34.828Z,8.8
2023-02-18T06:18:42.546Z,8.7
2023-02-18T06:19:52.029Z,8.6
2023-02-18T06:20:59.633Z,8.7
2023-02-18T06:22:06.667Z,8.7
2023-02-18T06:23:13.438Z,8.7
2023-02-18T06:24:21.089Z,8.7
2023-02-18T06:25:28.737Z,8.7
2023-02-18T06:26:35.477Z,8.7
2023-02-18T06:27:42.412Z,8.7
2023-02-18T06:28:49.225Z,8.7
2023-02-18T06:29:57.214Z,8.7
2023-02-18T06:31:05.469Z,8.8
2023-02-18T06:32:12.312Z,8.8
2023-02-18T06:33:19.410Z,8.8
2023-02-18T06:34:26.306Z,8.7
2023-02-18T06:35:33.314Z,8.8
2023-02-18T06:36:40.274Z,8.8
2023-02-18T06:37:48.028Z,8.7
2023-02-18T06:38:54.944Z,8.8
2023-02-18T06:40:01.846Z,8.7
2023-02-18T06:41:09.073Z,8.7
2023-02-18T06:42:16.732Z,8.7
2023-02-18T06:43:24.945Z,8.7
2023-02-18T06:44:31.848Z,8.7
2023-02-18T06:45:40.409Z,8.7
2023-02-18T06:46:49.172Z,8.7
2023-02-18T06:47:57.963Z,8.6
2023-02-18T06:49:04.861Z,8.7
2023-02-18T06:50:13.799Z,8.8
2023-02-18T06:51:20.687Z,8.8
2023-02-18T06:52:28.380Z,8.7
2023-02-18T06:53:35.232Z,8.7
2023-02-18T06:54:43.758Z,8.8
2023-02-18T06:55:51.481Z,8.8
2023-02-18T06:56:58.447Z,8.8
2023-02-18T06:58:05.322Z,8.7
2023-02-18T06:59:12.208Z,8.8
2023-02-18T07:00:19.818Z,8.8
2023-02-18T07:01:28.150Z,8.7
2023-02-18T07:02:35.020Z,8.7
2023-02-18T07:03:41.959Z,8.7
2023-02-18T07:04:51.600Z,8.7
2023-02-18T07:05:58.487Z,8.8
2023-02-18T07:07:06.056Z,8.8
2023-02-18T07:08:14.320Z,8.8
2023-02-18T07:11:49.344Z,8.7
2023-02-18T07:12:56.512Z,8.7
2023-02-18T07:15:55.137Z,8.6
2023-02-18T07:17:03.294Z,8.7
2023-02-18T07:18:11.314Z,8.8
2023-02-18T07:19:18.382Z,8.8
2023-02-18T07:20:51.090Z,8.8
2023-02-18T07:23:20.976Z,8.8
2023-02-18T07:25:58.838Z,8.8
2023-02-18T07:30:21.899Z,8.8
2023-02-18T07:31:29.301Z,8.9
2023-02-18T07:32:36.409Z,8.9
2023-02-18T07:33:46.503Z,9
2023-02-18T07:35:51.995Z,9
2023-02-18T07:36:59.807Z,9
2023-02-18T07:38:11.318Z,9
2023-02-18T07:39:18.273Z,9
2023-02-18T07:40:26.806Z,8.9
2023-02-18T07:41:37.602Z,8.9
2023-02-18T07:42:46.310Z,8.9
2023-02-18T07:43:54.350Z,8.8
2023-02-18T07:45:01.550Z,8.9
2023-02-18T07:46:11.981Z,9
2023-02-18T07:47:18.871Z,9
2023-02-18T07:48:26.904Z,9
2023-02-18T07:49:33.925Z,8.9
2023-02-18T07:50:41.666Z,9
2023-02-18T07:51:49.158Z,9
2023-02-18T07:52:58.494Z,8.8
2023-02-18T07:54:05.607Z,8.8
2023-02-18T07:55:13.713Z,8.9
2023-02-18T07:56:36.189Z,8.9
2023-02-18T07:57:44.454Z,9
2023-02-18T07:58:59.206Z,8.9
2023-02-18T08:00:09.740Z,8.9
2023-02-18T08:01:19.702Z,9
2023-02-18T08:02:28.182Z,8.9
2023-02-18T08:03:37.846Z,8.9
2023-02-18T08:04:45.038Z,8.9
2023-02-18T08:05:56.316Z,8.9
2023-02-18T08:07:03.542Z,8.9
2023-02-18T08:08:13.998Z,8.9
2023-02-18T08:09:21.830Z,8.8
2023-02-18T08:10:28.902Z,8.9
2023-02-18T08:11:48.239Z,8.9
2023-02-18T08:12:59.716Z,8.9
2023-02-18T08:14:07.788Z,8.9
2023-02-18T08:15:15.712Z,8.9
2023-02-18T08:16:25.594Z,8.9
2023-02-18T08:17:33.109Z,8.8
2023-02-18T08:18:40.385Z,8.9
2023-02-18T08:19:49.146Z,9
2023-02-18T08:20:56.199Z,9
2023-02-18T08:22:03.448Z,9
2023-02-18T08:23:11.189Z,9
2023-02-18T08:24:18.425Z,9
2023-02-18T08:25:31.097Z,9.1
2023-02-18T08:26:54.413Z,8.9
2023-02-18T08:27:50.140Z,9
2023-02-18T08:28:57.960Z,9
2023-02-18T08:30:07.845Z,9
2023-02-18T08:31:17.239Z,9
2023-02-18T08:32:30.285Z,9
2023-02-18T08:33:38.820Z,8.9
2023-02-18T08:34:46.677Z,8.9
2023-02-18T08:35:54.970Z,8.9
2023-02-18T08:37:01.883Z,8.9
2023-02-18T08:38:11.336Z,8.9
2023-02-18T08:39:29.509Z,8.9
2023-02-18T08:40:39.354Z,9
2023-02-18T08:41:49.008Z,8.9
2023-02-18T08:42:57.721Z,9
2023-02-18T08:44:06.393Z,9
2023-02-18T08:45:14.478Z,9
2023-02-18T08:46:25.366Z,9
2023-02-18T08:48:19.025Z,8.9
2023-02-18T08:48:42.706Z,8.9
2023-02-18T08:49:49.776Z,8.9
2023-02-18T08:50:59.805Z,9
2023-02-18T08:52:15.652Z,8.9
2023-02-18T08:53:22.850Z,8.9
2023-02-18T08:54:30.134Z,8.9
2023-02-18T08:55:38.860Z,8.9
2023-02-18T08:56:46.762Z,9
2023-02-18T08:57:54.897Z,8.9
2023-02-18T08:59:02.028Z,9
2023-02-18T09:00:10.277Z,8.9
2023-02-18T09:01:17.977Z,8.9
2023-02-18T09:02:25.716Z,8.8
2023-02-18T09:03:33.412Z,9
2023-02-18T09:04:41.629Z,8.9
2023-02-18T09:05:56.421Z,8.9
2023-02-18T09:07:07.746Z,8.9
2023-02-18T09:08:15.136Z,8.9
2023-02-18T09:09:22.406Z,8.8
2023-02-18T09:10:29.658Z,8.9
2023-02-18T09:11:37.111Z,8.9
2023-02-18T09:12:47.040Z,9
2023-02-18T09:13:54.495Z,9
2023-02-18T09:15:04.534Z,8.9
2023-02-18T09:16:14.740Z,9
2023-02-18T09:17:23.433Z,8.9
2023-02-18T09:18:31.217Z,8.9
2023-02-18T09:19:41.913Z,9
2023-02-18T09:20:49.096Z,9
2023-02-18T09:21:58.053Z,8.9
2023-02-18T09:23:04.123Z,8.8
2023-02-18T09:24:12.096Z,8.8
2023-02-18T09:25:21.084Z,8.9
2023-02-18T09:26:31.038Z,8.9
2023-02-18T09:27:39.012Z,9
2023-02-18T09:28:46.239Z,9.1
2023-02-18T09:29:53.355Z,9.1
2023-02-18T09:31:01.725Z,9
2023-02-18T09:32:28.946Z,9.1
2023-02-18T09:33:25.876Z,9
2023-02-18T09:34:33.222Z,9
2023-02-18T09:35:40.352Z,9.1
2023-02-18T09:36:48.344Z,9.1
2023-02-18T09:37:58.246Z,9.2
2023-02-18T09:39:06.530Z,9.3
2023-02-18T09:40:16.276Z,9.4
2023-02-18T09:41:29.757Z,9.3
2023-02-18T09:42:44.948Z,9.3
2023-02-18T09:43:55.592Z,9.3
2023-02-18T09:45:03.376Z,9.1
2023-02-18T09:46:10.760Z,9.2
2023-02-18T09:47:32.451Z,9.4
2023-02-18T09:48:40.358Z,9.2
2023-02-18T09:49:50.056Z,9
2023-02-18T09:51:02.445Z,9.1
2023-02-18T09:52:49.172Z,9.1
2023-02-18T09:53:58.541Z,8.9
2023-02-18T09:55:06.760Z,8.9
2023-02-18T09:56:19.031Z,9.1
2023-02-18T09:57:27.357Z,8.9
2023-02-18T09:58:40.447Z,8.9
2023-02-18T10:00:00.715Z,8.9
2023-02-18T10:01:09.405Z,8.8
2023-02-18T10:02:30.421Z,8.8
2023-02-18T10:03:40.657Z,8.7
2023-02-18T10:04:50.698Z,8.8
2023-02-18T10:05:58.534Z,8.7
2023-02-18T10:07:13.642Z,8.8
2023-02-18T10:08:37.985Z,8.9
2023-02-18T10:09:51.241Z,8.8
2023-02-18T10:11:01.825Z,8.6
2023-02-18T10:12:12.284Z,8.8
2023-02-18T10:13:20.689Z,8.6
2023-02-18T10:14:31.486Z,8.6
2023-02-18T10:15:39.170Z,8.7
2023-02-18T10:16:48.730Z,8.6
2023-02-18T10:18:07.486Z,8.7
2023-02-18T10:19:20.377Z,8.7
2023-02-18T10:20:28.231Z,8.7
2023-02-18T10:21:37.260Z,8.5
2023-02-18T10:22:45.124Z,8.4
2023-02-18T10:23:53.509Z,8.3
2023-02-18T10:25:06.475Z,8.3
2023-02-18T10:26:13.678Z,8.3
2023-02-18T10:27:22.352Z,8.3
2023-02-18T10:28:34.696Z,8.2
2023-02-18T10:29:41.855Z,8
2023-02-18T10:30:49.865Z,8
2023-02-18T10:32:02.190Z,8
2023-02-18T10:33:22.791Z,7.8
2023-02-18T10:34:33.044Z,8
2023-02-18T10:35:45.580Z,8.1
2023-02-18T10:36:59.911Z,8
2023-02-18T10:38:15.450Z,7.9
2023-02-18T10:39:30.269Z,7.9
2023-02-18T10:40:45.950Z,7.8
2023-02-18T10:42:05.633Z,7.8
2023-02-18T10:43:21.451Z,7.9
2023-02-18T10:44:37.595Z,7.8
2023-02-18T10:45:54.744Z,7.8
2023-02-18T10:47:11.399Z,7.8
2023-02-18T10:48:27.885Z,7.7
2023-02-18T10:49:35.271Z,7.5
2023-02-18T10:50:53.397Z,7.6
2023-02-18T10:52:00.996Z,7.8
2023-02-18T10:53:08.063Z,7.9
2023-02-18T10:54:20.232Z,7.8
2023-02-18T10:55:28.453Z,8
2023-02-18T10:56:39.580Z,8.1
2023-02-18T10:57:51.745Z,7.7
2023-02-18T10:59:11.698Z,7.6
2023-02-18T11:00:25.403Z,7.8
2023-02-18T11:01:35.596Z,7.8
2023-02-18T11:02:45.505Z,7.9
2023-02-18T11:04:25.370Z,7.8
2023-02-18T11:05:40.888Z,7.8
2023-02-18T11:06:49.242Z,7.8
2023-02-18T11:07:56.698Z,7.9
2023-02-18T11:09:05.065Z,7.7
2023-02-18T11:10:18.996Z,7.4
2023-02-18T11:11:23.369Z,7.4
2023-02-18T11:12:33.222Z,7.6
2023-02-18T11:13:46.670Z,7.7
2023-02-18T11:14:59.728Z,7.8
2023-02-18T11:16:21.339Z,7.8
2023-02-18T11:17:30.392Z,7.7
2023-02-18T11:18:39.001Z,7.8
2023-02-18T11:19:47.851Z,7.9
2023-02-18T11:21:03.203Z,8
2023-02-18T11:22:11.017Z,7.9
2023-02-18T11:23:30.005Z,8
2023-02-18T11:24:37.467Z,8
2023-02-18T11:25:46.139Z,8
2023-02-18T11:27:01.700Z,7.9
2023-02-18T11:28:12.940Z,7.9
2023-02-18T11:29:21.068Z,8
2023-02-18T11:30:33.519Z,8.1
2023-02-18T11:31:46.154Z,8
2023-02-18T11:32:57.240Z,8.1
2023-02-18T11:34:13.482Z,8.2
2023-02-18T11:35:21.976Z,8.1
2023-02-18T11:36:29.622Z,8.2
2023-02-18T11:37:38.869Z,8
2023-02-18T11:38:49.890Z,8.2
2023-02-18T11:40:20.955Z,8.3
2023-02-18T11:41:29.785Z,8.3
2023-02-18T11:42:43.110Z,8.2
2023-02-18T11:44:01.743Z,8.1
2023-02-18T11:45:15.275Z,8.1
2023-02-18T11:46:36.179Z,8.1
2023-02-18T11:47:43.556Z,8.1
2023-02-18T11:48:55.145Z,8.2
2023-02-18T11:50:10.736Z,8.3
2023-02-18T11:51:19.355Z,8.4
2023-02-18T11:52:30.612Z,8.4
2023-02-18T11:53:43.137Z,8.4
2023-02-18T11:55:03.761Z,8.4
2023-02-18T11:56:24.105Z,8.4
2023-02-18T11:57:41.023Z,8.4
2023-02-18T11:58:54.751Z,8.4
2023-02-18T12:00:03.147Z,8.4
2023-02-18T12:03:11.327Z,8.3
2023-02-18T12:04:40.839Z,8.4
2023-02-18T12:06:10.202Z,8.4
2023-02-18T12:09:35.198Z,8.1
2023-02-18T12:14:36.329Z,8.3
2023-02-18T12:20:35.407Z,8.4
2023-02-18T12:22:58.305Z,8.3
2023-02-18T12:31:52.698Z,8
2023-02-18T12:36:06.353Z,7.8
2023-02-18T12:39:21.698Z,8
2023-02-18T12:45:55.106Z,8
2023-02-18T12:48:18.465Z,8
2023-02-18T12:59:33.102Z,7.7
2023-02-18T13:02:20.820Z,7.9
2023-02-18T13:07:52.878Z,7.8
2023-02-18T13:17:07.790Z,7.8
2023-02-18T13:21:37.580Z,7.8
2023-02-18T13:29:55.204Z,8.1
2023-02-18T13:31:40.617Z,8.2
2023-02-18T13:34:25.009Z,8
2023-02-18T13:36:45.794Z,7.8
2023-02-18T13:38:10.370Z,7.8
2023-02-18T13:39:28.133Z,7.8
2023-02-18T13:40:39.942Z,7.8
2023-02-18T13:42:47.244Z,7.7
2023-02-18T13:56:38.233Z,7.8
2023-02-18T13:57:54.939Z,7.8
2023-02-18T13:59:14.780Z,7.9
2023-02-18T14:00:42.967Z,7.9
2023-02-18T14:01:57.750Z,7.9
2023-02-18T14:03:23.077Z,7.9
2023-02-18T14:05:19.222Z,7.9
2023-02-18T14:06:53.039Z,7.8
2023-02-18T14:08:26.458Z,7.9
2023-02-18T14:09:44.234Z,7.9
2023-02-18T14:11:54.053Z,8
2023-02-18T14:13:23.731Z,8
2023-02-18T14:15:37.440Z,8.1
2023-02-18T14:17:02.775Z,8.2
2023-02-18T14:19:09.324Z,8.2
2023-02-18T14:20:33.968Z,8.4
2023-02-18T14:21:59.297Z,8.4
2023-02-18T14:23:48.134Z,8.3
2023-02-18T14:26:08.833Z,8.4
2023-02-18T14:30:37.937Z,8.4
2023-02-18T14:33:43.314Z,8.5
2023-02-18T14:39:01.256Z,8.5
2023-02-18T14:42:37.932Z,8.6
2023-02-18T14:46:59.575Z,8.6
2023-02-18T14:48:14.278Z,8.7
2023-02-18T14:51:58.430Z,8.7
2023-02-18T15:01:16.620Z,8.8
2023-02-18T15:04:23.268Z,8.7
2023-02-18T15:13:46.990Z,8.8
2023-02-18T15:15:35.586Z,8.8
2023-02-18T15:19:13.352Z,8.7
2023-02-18T15:28:28.805Z,8.9
2023-02-18T15:37:59.545Z,9.1
2023-02-18T15:39:56.405Z,9
2023-02-18T15:42:29.277Z,9.1
2023-02-18T15:50:30.187Z,9.2
2023-02-18T15:53:10.428Z,9.2
2023-02-18T15:58:10.334Z,9.3
2023-02-18T16:06:01.874Z,9.5
2023-02-18T16:08:40.704Z,9.6
2023-02-18T16:11:45.607Z,9.5
2023-02-18T16:15:20.391Z,9.5
2023-02-18T16:16:47.937Z,9.6
2023-02-18T16:17:57.929Z,9.5
2023-02-18T16:23:17.568Z,9.5
2023-02-18T16:24:25.606Z,9.6
2023-02-18T16:29:31.931Z,9.7
2023-02-18T16:33:32.172Z,9.7
2023-02-18T16:38:34.930Z,9.8
2023-02-18T16:43:15.104Z,9.8
2023-02-18T16:48:42.632Z,10.1
2023-02-18T16:57:48.408Z,9.8
2023-02-18T17:00:25.229Z,9.9
2023-02-18T17:02:10.372Z,9.9
2023-02-18T17:04:14.244Z,9.8
2023-02-18T17:07:33.183Z,9.9
2023-02-18T17:09:29.591Z,9.8
2023-02-18T17:12:25.279Z,9.8
2023-02-18T17:14:13.029Z,9.9
2023-02-18T17:18:31.893Z,10
2023-02-18T17:21:13.652Z,9.9
2023-02-18T17:23:35.946Z,9.8
2023-02-18T17:25:48.445Z,9.9
2023-02-18T17:30:53.353Z,10
2023-02-18T17:35:02.828Z,9.9
2023-02-18T17:37:32.864Z,10
2023-02-18T17:46:01.963Z,9.9
2023-02-18T17:49:12.752Z,10
2023-02-18T17:51:09.070Z,10
2023-02-18T17:57:28.586Z,9.9
2023-02-18T18:00:45.252Z,9.9
2023-02-18T18:06:17.011Z,9.9
2023-02-18T18:13:27.942Z,10
2023-02-18T18:14:43.879Z,9.9
2023-02-18T18:17:13.431Z,10
2023-02-18T18:18:56.899Z,9.9
2023-02-18T18:20:16.566Z,10
2023-02-18T18:21:28.304Z,10
2023-02-18T18:22:56.907Z,10
2023-02-18T18:24:04.218Z,9.9
2023-02-18T18:25:12.964Z,10
2023-02-18T18:27:10.128Z,10
2023-02-18T18:28:19.928Z,10.1
2023-02-18T18:29:36.453Z,10
2023-02-18T18:30:54.175Z,10
2023-02-18T18:32:04.633Z,10
2023-02-18T18:33:12.639Z,9.9
2023-02-18T18:35:56.159Z,10
2023-02-18T18:37:51.609Z,10.1
2023-02-18T18:40:03.498Z,10.1
2023-02-18T18:41:11.488Z,10
2023-02-18T18:43:03.005Z,10
2023-02-18T18:44:10.881Z,10
2023-02-18T18:47:39.138Z,10
2023-02-18T18:53:20.776Z,9.9
2023-02-18T18:56:06.309Z,10
2023-02-18T18:59:41.377Z,10
2023-02-18T19:00:58.005Z,10
2023-02-18T19:02:21.998Z,9.9
2023-02-18T19:05:21.468Z,10.1
2023-02-18T19:06:34.891Z,10.1
2023-02-18T19:08:11.499Z,10
2023-02-18T19:09:19.550Z,9.9
2023-02-18T19:10:30.995Z,9.9
2023-02-18T19:12:13.130Z,9.9
2023-02-18T19:14:39.261Z,9.8
2023-02-18T19:18:09.950Z,10
2023-02-18T19:28:17.976Z,9.8
2023-02-18T19:34:04.192Z,9.9
2023-02-18T19:45:07.539Z,10
2023-02-18T19:47:07.751Z,9.9
2023-02-18T19:50:52.765Z,10.1
2023-02-18T19:52:53.379Z,10
2023-02-18T20:02:41.740Z,10.1
2023-02-18T20:04:19.773Z,10
2023-02-18T20:19:49.453Z,10.2
2023-02-18T20:24:55.495Z,10.1
2023-02-18T20:32:45.980Z,10.2
2023-02-18T20:39:59.201Z,10.1
2023-02-18T20:42:08.141Z,10.1
2023-02-18T20:44:41.633Z,10.1
2023-02-18T20:47:10.704Z,10
2023-02-18T20:50:57.270Z,10.1
2023-02-18T20:53:03.780Z,10
2023-02-18T20:55:49.521Z,10.2
2023-02-18T20:56:57.340Z,10.2
2023-02-18T20:58:05.814Z,10.1
2023-02-18T20:59:55.830Z,10.2
2023-02-18T21:02:41.706Z,10.1
2023-02-18T21:03:53.573Z,10.2
2023-02-18T21:05:05.803Z,10.1
2023-02-18T21:06:16.316Z,10.2
2023-02-18T21:07:52.962Z,10
2023-02-18T21:09:38.764Z,10.1
2023-02-18T21:11:09.190Z,10.1
2023-02-18T21:14:49.432Z,10.1
2023-02-18T21:15:57.101Z,10.1
2023-02-18T21:17:33.587Z,10
2023-02-18T21:18:41.452Z,10.1
2023-02-18T21:21:16.217Z,10.1
2023-02-18T21:26:09.600Z,10
2023-02-18T21:27:38.229Z,10.1
2023-02-18T21:30:25.100Z,10.1
2023-02-18T21:34:04.191Z,10
2023-02-18T21:38:23.313Z,10
2023-02-18T21:40:19.327Z,10
2023-02-18T21:43:04.035Z,10
2023-02-18T21:46:05.462Z,9.9
2023-02-18T21:47:22.206Z,9.9
2023-02-18T21:50:51.089Z,10.1
2023-02-18T21:53:10.702Z,10
2023-02-18T21:55:30.968Z,9.9
2023-02-18T22:05:42.999Z,9.9
2023-02-18T22:14:35.534Z,9.9
2023-02-18T22:16:12.935Z,9.7
2023-02-18T22:20:33.573Z,9.8
2023-02-18T22:22:12.951Z,9.8
2023-02-18T22:23:51.136Z,9.6
2023-02-18T22:28:18.030Z,9.9
2023-02-18T22:32:40.781Z,9.5
2023-02-18T22:35:17.831Z,9.4
2023-02-18T22:36:28.692Z,9.3
2023-02-18T22:37:41.205Z,9.2
2023-02-18T22:42:49.848Z,9
2023-02-18T22:44:01.638Z,8.9
2023-02-18T22:49:11.927Z,8.3
2023-02-18T22:50:24.413Z,8.2
2023-02-18T22:52:02.769Z,8.3
2023-02-18T22:55:30.071Z,8.2
2023-02-18T23:00:40.249Z,7.9
2023-02-18T23:05:26.446Z,7.9
2023-02-18T23:08:44.370Z,7.8
2023-02-18T23:11:12.434Z,7.8
2023-02-18T23:15:43.758Z,7.8
2023-02-18T23:20:14.459Z,7.6
2023-02-18T23:25:43.854Z,7.7
2023-02-18T23:29:56.580Z,7.6
2023-02-18T23:34:41.799Z,7.8
2023-02-18T23:35:48.937Z,7.8
2023-02-18T23:38:52.339Z,7.7
2023-02-18T23:42:08.098Z,7.8
2023-02-18T23:44:55.116Z,7.9
2023-02-18T23:46:25.864Z,7.9
2023-02-18T23:50:12.332Z,7.9
2023-02-18T23:52:02.321Z,8.1
2023-02-18T23:54:43.140Z,8.1
2023-02-18T23:59:18.302Z,8.1
